Time;durP1;ratioP1;P1;durP2;ratioP2;P2;SDS_P1;SDS_P2;PMS_P1;PMS_P2;Temp;Humidity;BMP_temperature;BMP_pressure;BME280_temperature;BME280_humidity;BME280_pressure;Samples;Min_cycle;Max_cycle;Signal;HPM_P1;HPM_P2
2023/01/12 00:01:40;;;;;;;6.05;0.85;;;;;;;-146.73;100.00;56421.06;6185244;23;20028;-95
2023/01/12 00:04:06;;;;;;;4.47;1.00;;;;;;;-146.73;100.00;56421.06;6159679;23;20039;-96
2023/01/12 00:06:32;;;;;;;3.78;0.65;;;;;;;-146.73;100.00;56421.06;6159192;23;20027;-96
2023/01/12 00:09:01;;;;;;;3.20;0.60;;;;;;;-146.73;100.00;56421.06;6158812;23;20092;-95
2023/01/12 00:11:26;;;;;;;6.43;0.80;;;;;;;-146.73;100.00;56421.06;6158496;23;20092;-96
2023/01/12 00:13:53;;;;;;;4.05;0.60;;;;;;;-146.73;100.00;56421.06;6159779;23;20012;-96
2023/01/12 00:16:37;;;;;;;2.75;0.40;;;;;;;-146.73;100.00;56421.06;6158870;23;20012;-96
2023/01/12 00:19:21;;;;;;;3.00;0.60;;;;;;;-146.73;100.00;56421.06;6158423;23;20008;-95
2023/01/12 00:22:07;;;;;;;2.03;0.50;;;;;;;-146.73;100.00;56421.06;6159203;23;20013;-96
2023/01/12 00:24:40;;;;;;;1.65;0.40;;;;;;;-146.73;100.00;56421.06;6160576;23;20020;-95
2023/01/12 00:27:09;;;;;;;2.33;0.28;;;;;;;-146.73;100.00;56421.06;6159730;23;20020;-96
2023/01/12 00:29:35;;;;;;;2.80;0.55;;;;;;;-146.73;100.00;56421.06;6159380;23;20040;-95
2023/01/12 00:32:04;;;;;;;3.15;0.50;;;;;;;-146.73;100.00;56421.06;6186601;23;20103;-96
2023/01/12 00:34:29;;;;;;;1.73;0.40;;;;;;;-146.73;100.00;56421.06;6157350;23;20009;-96
2023/01/12 00:37:05;;;;;;;1.55;0.32;;;;;;;-146.73;100.00;56421.06;6157254;23;20031;-96
2023/01/12 00:39:35;;;;;;;1.20;0.20;;;;;;;-146.73;100.00;56421.06;6157135;23;20013;-96
2023/01/12 00:47:32;;;;;;;1.77;0.32;;;;;;;-146.73;100.00;56421.06;6156750;23;20087;-95
2023/01/12 00:49:58;;;;;;;3.28;0.40;;;;;;;-146.73;100.00;56421.06;6159408;23;20017;-95
2023/01/12 00:52:23;;;;;;;1.08;0.28;;;;;;;-146.73;100.00;56421.06;6158963;23;20013;-96
2023/01/12 00:54:49;;;;;;;1.75;0.30;;;;;;;-146.73;100.00;56421.06;6155977;23;20072;-95
2023/01/12 00:57:16;;;;;;;2.20;0.60;;;;;;;-146.73;100.00;56421.06;6157847;23;20009;-96
2023/01/12 00:59:45;;;;;;;4.38;0.57;;;;;;;-146.73;100.00;56421.06;6158333;23;20566;-96
2023/01/12 01:02:14;;;;;;;3.40;0.57;;;;;;;-146.73;100.00;56421.06;6152049;23;20028;-96
2023/01/12 01:04:40;;;;;;;1.02;0.30;;;;;;;-146.73;100.00;56421.06;6160728;23;20248;-95
2023/01/12 01:07:06;;;;;;;4.07;0.65;;;;;;;-146.73;100.00;56421.06;6155599;23;20368;-96
2023/01/12 01:09:38;;;;;;;3.00;0.60;;;;;;;-146.73;100.00;56421.06;6157309;23;20013;-96
2023/01/12 01:12:09;;;;;;;2.17;0.40;;;;;;;-146.73;100.00;56421.06;6172164;23;20006;-96
2023/01/12 01:15:00;;;;;;;4.45;0.80;;;;;;;-146.73;100.00;56421.06;6170236;23;20009;-96
2023/01/12 01:17:45;;;;;;;3.78;0.65;;;;;;;-146.73;100.00;56421.06;6144760;23;20017;-96
2023/01/12 01:20:11;;;;;;;3.70;0.73;;;;;;;-146.73;100.00;56421.06;6151770;23;20025;-93
2023/01/12 01:22:36;;;;;;;4.53;0.80;;;;;;;-146.73;100.00;56421.06;6145625;23;20013;-93
2023/01/12 01:25:02;;;;;;;2.00;0.50;;;;;;;-146.73;100.00;56421.06;6144809;23;20029;-92
2023/01/12 01:27:27;;;;;;;3.08;0.77;;;;;;;-146.73;100.00;56421.06;6144525;23;20048;-92
2023/01/12 01:29:53;;;;;;;3.83;0.88;;;;;;;-146.73;100.00;56421.06;6147534;23;20002;-93
2023/01/12 01:32:18;;;;;;;3.75;0.70;;;;;;;-146.73;100.00;56421.06;6145577;23;20020;-92
2023/01/12 01:34:45;;;;;;;3.10;0.70;;;;;;;-146.73;100.00;56421.06;6147380;23;20422;-93
2023/01/12 01:37:11;;;;;;;3.97;0.70;;;;;;;-146.73;100.00;56421.06;6144409;23;20037;-92
2023/01/12 01:39:37;;;;;;;4.00;0.73;;;;;;;-146.73;100.00;56421.06;6146299;23;19997;-92
2023/01/12 01:42:02;;;;;;;4.50;0.60;;;;;;;-146.73;100.00;56421.06;6146528;23;20276;-93
2023/01/12 01:44:28;;;;;;;5.85;0.80;;;;;;;-146.73;100.00;56421.06;6146123;23;20052;-93
2023/01/12 01:47:04;;;;;;;6.25;0.82;;;;;;;-146.73;100.00;56421.06;6146615;23;20044;-92
2023/01/12 01:49:39;;;;;;;8.15;1.27;;;;;;;-146.73;100.00;56421.06;6147285;23;20006;-92
2023/01/12 01:52:32;;;;;;;9.05;0.82;;;;;;;-146.73;100.00;56421.06;6143982;23;20404;-93
2023/01/12 01:55:01;;;;;;;7.38;1.15;;;;;;;-146.73;100.00;56421.06;6143725;23;20028;-93
2023/01/12 01:57:41;;;;;;;5.47;0.70;;;;;;;-146.73;100.00;56421.06;6147589;23;20403;-93
2023/01/12 02:00:10;;;;;;;7.60;1.13;;;;;;;-146.73;100.00;56421.06;6147549;23;20040;-94
2023/01/12 02:02:38;;;;;;;6.38;0.90;;;;;;;-146.73;100.00;56421.06;6145826;23;20033;-94
2023/01/12 02:05:04;;;;;;;9.65;1.30;;;;;;;-146.73;100.00;56421.06;6146089;23;20016;-93
2023/01/12 02:07:29;;;;;;;9.63;1.55;;;;;;;-146.73;100.00;56421.06;6145889;23;20088;-93
2023/01/12 02:09:55;;;;;;;9.88;1.38;;;;;;;-146.73;100.00;56421.06;6145270;23;20428;-94
2023/01/12 02:18:13;;;;;;;7.40;1.27;;;;;;;-146.73;100.00;56421.06;6146394;23;20016;-93
2023/01/12 02:21:04;;;;;;;11.45;1.75;;;;;;;-146.73;100.00;56421.06;6144619;23;20022;-95
2023/01/12 02:23:41;;;;;;;10.80;1.40;;;;;;;-146.73;100.00;56421.06;6145281;23;20010;-94
2023/01/12 02:26:28;;;;;;;8.55;1.55;;;;;;;-146.73;100.00;56421.06;6148301;23;20001;-94
2023/01/12 02:29:53;;;;;;;9.43;1.55;;;;;;;-146.73;100.00;56421.06;6156483;23;20014;-96
2023/01/12 02:32:41;;;;;;;6.97;1.48;;;;;;;-146.73;100.00;56421.06;6098315;23;20018;-96
2023/01/12 02:35:25;;;;;;;9.27;1.50;;;;;;;-146.73;100.00;56421.06;6120640;23;20033;-95
2023/01/12 02:38:23;;;;;;;11.52;1.88;;;;;;;-146.73;100.00;56421.06;6097956;23;20006;-96
2023/01/12 02:41:16;;;;;;;8.15;1.38;;;;;;;-146.73;100.00;56421.06;6099805;23;20089;-96
2023/01/12 02:43:43;;;;;;;8.27;1.37;;;;;;;-146.73;100.00;56421.06;6102458;23;20009;-96
2023/01/12 02:46:27;;;;;;;8.27;1.10;;;;;;;-146.73;100.00;56421.06;6123886;23;20018;-96
2023/01/12 02:49:05;;;;;;;11.30;1.60;;;;;;;-146.73;100.00;56421.06;6098664;23;20038;-96
2023/01/12 02:51:44;;;;;;;9.90;1.70;;;;;;;-146.73;100.00;56421.06;6099672;23;20088;-96
2023/01/12 02:54:14;;;;;;;8.65;2.10;;;;;;;-146.73;100.00;56421.06;6125957;23;20081;-96
2023/01/12 02:56:47;;;;;;;12.60;2.28;;;;;;;-146.73;100.00;56421.06;6101823;23;20010;-96
2023/01/12 02:59:29;;;;;;;10.63;2.22;;;;;;;-146.73;100.00;56421.06;6124732;23;20009;-96
2023/01/12 03:04:31;;;;;;;11.63;2.00;;;;;;;-146.73;100.00;56421.06;6176076;23;20033;-91
2023/01/12 03:06:56;;;;;;;11.80;2.92;;;;;;;-146.73;100.00;56421.06;6149362;23;20013;-92
2023/01/12 03:09:30;;;;;;;10.32;2.10;;;;;;;-146.73;100.00;56421.06;6152774;23;20013;-92
2023/01/12 03:12:02;;;;;;;8.00;2.00;;;;;;;-146.73;100.00;56421.06;6152743;23;20512;-93
2023/01/12 03:14:31;;;;;;;8.20;2.15;;;;;;;-146.73;100.00;56421.06;6153008;23;20057;-92
2023/01/12 03:16:56;;;;;;;9.80;2.38;;;;;;;-146.73;100.00;56421.06;6178566;23;20071;-91
2023/01/12 03:19:29;;;;;;;11.57;1.90;;;;;;;-146.73;100.00;56421.06;6152826;23;20386;-92
2023/01/12 03:22:09;;;;;;;13.18;2.50;;;;;;;-146.73;100.00;56421.06;6152876;23;20005;-94
2023/01/12 03:24:39;;;;;;;11.50;2.00;;;;;;;-146.73;100.00;56421.06;6150927;23;20094;-91
2023/01/12 03:27:39;;;;;;;9.82;1.95;;;;;;;-146.73;100.00;56421.06;6150821;23;20089;-92
2023/01/12 03:30:10;;;;;;;8.23;1.80;;;;;;;-146.73;100.00;56421.06;6152183;23;20047;-91
2023/01/12 03:32:36;;;;;;;10.18;1.70;;;;;;;-146.73;100.00;56421.06;6151858;23;20005;-91
2023/01/12 03:35:04;;;;;;;12.48;1.67;;;;;;;-146.73;100.00;56421.06;6150111;23;20446;-90
2023/01/12 03:37:43;;;;;;;6.88;1.73;;;;;;;-146.73;100.00;56421.06;6152605;23;20008;-94
2023/01/12 03:40:15;;;;;;;6.38;1.67;;;;;;;-146.73;100.00;56421.06;6176258;23;20035;-93
2023/01/12 03:42:54;;;;;;;7.67;1.47;;;;;;;-146.73;100.00;56421.06;6152410;23;20071;-90
2023/01/12 03:45:26;;;;;;;9.48;1.80;;;;;;;-146.73;100.00;56421.06;6177889;23;20017;-91
2023/01/12 03:48:17;;;;;;;10.25;2.08;;;;;;;-146.73;100.00;56421.06;6151628;23;20035;-90
2023/01/12 03:50:50;;;;;;;7.10;1.25;;;;;;;-146.73;100.00;56421.06;6150235;23;20025;-91
2023/01/12 03:53:20;;;;;;;9.15;1.98;;;;;;;-146.73;100.00;56421.06;6151032;23;20009;-91
2023/01/12 03:55:49;;;;;;;8.65;1.55;;;;;;;-146.73;100.00;56421.06;6176667;23;20341;-94
2023/01/12 03:58:16;;;;;;;11.10;1.77;;;;;;;-146.73;100.00;56421.06;6150581;23;20013;-93
2023/01/12 04:00:42;;;;;;;9.60;1.90;;;;;;;-146.73;100.00;56421.06;6176067;23;20026;-91
2023/01/12 04:03:10;;;;;;;10.27;2.00;;;;;;;-146.73;100.00;56421.06;6150234;23;20506;-94
2023/01/12 04:05:36;;;;;;;9.30;1.70;;;;;;;-146.73;100.00;56421.06;6175892;23;20035;-92
2023/01/12 04:08:01;;;;;;;5.95;1.20;;;;;;;-146.73;100.00;56421.06;6150511;23;20009;-92
2023/01/12 04:10:27;;;;;;;8.15;1.10;;;;;;;-146.73;100.00;56421.06;6150638;23;20011;-91
2023/01/12 04:12:55;;;;;;;4.32;1.10;;;;;;;-146.73;100.00;56421.06;6178407;23;20001;-94
2023/01/12 04:15:21;;;;;;;3.20;0.68;;;;;;;-146.73;100.00;56421.06;6152367;23;20001;-92
2023/01/12 04:17:46;;;;;;;2.83;0.50;;;;;;;-146.73;100.00;56421.06;6151006;23;20088;-93
2023/01/12 04:20:12;;;;;;;3.47;0.52;;;;;;;-146.73;100.00;56421.06;6178338;23;20005;-93
2023/01/12 04:22:44;;;;;;;4.15;0.60;;;;;;;-146.73;100.00;56421.06;6151729;23;20076;-93
2023/01/12 04:25:16;;;;;;;4.32;0.60;;;;;;;-146.73;100.00;56421.06;6149513;23;20344;-93
2023/01/12 04:27:49;;;;;;;6.20;0.70;;;;;;;-146.73;100.00;56421.06;6148689;23;20000;-93
2023/01/12 04:30:17;;;;;;;5.30;0.68;;;;;;;-146.73;100.00;56421.06;6150297;23;20013;-92
2023/01/12 04:32:44;;;;;;;4.47;0.68;;;;;;;-146.73;100.00;56421.06;6149677;23;20005;-92
2023/01/12 04:35:11;;;;;;;6.93;1.00;;;;;;;-146.73;100.00;56421.06;6175579;23;20043;-92
2023/01/12 04:37:37;;;;;;;2.30;0.60;;;;;;;-146.73;100.00;56421.06;6174205;23;20004;-92
2023/01/12 04:40:03;;;;;;;4.68;0.75;;;;;;;-146.73;100.00;56421.06;6148985;23;20005;-93
2023/01/12 04:45:12;;;;;;;2.53;0.57;;;;;;;-146.73;100.00;56421.06;6175977;23;20095;-91
2023/01/12 04:47:38;;;;;;;3.58;0.63;;;;;;;-146.73;100.00;56421.06;6149553;23;20399;-91
2023/01/12 04:50:04;;;;;;;3.60;0.60;;;;;;;-146.73;100.00;56421.06;6147978;23;20017;-91
2023/01/12 04:52:29;;;;;;;7.50;0.80;;;;;;;-146.73;100.00;56421.06;6173093;23;20016;-91
2023/01/12 04:54:55;;;;;;;3.45;0.50;;;;;;;-146.73;100.00;56421.06;6150378;23;20009;-91
2023/01/12 04:57:20;;;;;;;4.80;0.88;;;;;;;-146.73;100.00;56421.06;6148696;23;20522;-91
2023/01/12 04:59:46;;;;;;;6.05;0.63;;;;;;;-146.73;100.00;56421.06;6175472;23;20011;-92
2023/01/12 05:02:11;;;;;;;8.40;0.95;;;;;;;-146.73;100.00;56421.06;6149503;23;20389;-92
2023/01/12 05:04:37;;;;;;;6.28;1.30;;;;;;;-146.73;100.00;56421.06;6175543;23;20390;-91
2023/01/12 05:07:02;;;;;;;10.50;1.48;;;;;;;-146.73;100.00;56421.06;6151285;23;20072;-92
2023/01/12 05:12:11;;;;;;;4.38;0.98;;;;;;;-146.73;100.00;56421.06;6177517;23;20091;-92
2023/01/12 05:14:37;;;;;;;2.72;0.52;;;;;;;-146.73;100.00;56421.06;6150679;23;20013;-93
2023/01/12 05:17:03;;;;;;;3.47;0.60;;;;;;;-146.73;100.00;56421.06;6150910;23;20075;-92
2023/01/12 05:19:29;;;;;;;2.20;0.45;;;;;;;-146.73;100.00;56421.06;6175679;23;20382;-92
2023/01/12 05:21:54;;;;;;;2.05;0.32;;;;;;;-146.73;100.00;56421.06;6150480;23;20013;-92
2023/01/12 05:24:20;;;;;;;1.88;0.40;;;;;;;-146.73;100.00;56421.06;6176420;23;20044;-93
2023/01/12 05:26:45;;;;;;;3.83;0.63;;;;;;;-146.73;100.00;56421.06;6149222;23;20039;-92
2023/01/12 05:29:11;;;;;;;6.35;1.08;;;;;;;-146.73;100.00;56421.06;6177118;23;20285;-92
2023/01/12 05:31:36;;;;;;;5.93;1.00;;;;;;;-146.73;100.00;56421.06;6150059;23;20441;-93
2023/01/12 05:34:02;;;;;;;5.00;1.20;;;;;;;-146.73;100.00;56421.06;6151999;23;20074;-92
2023/01/12 05:36:27;;;;;;;4.95;1.20;;;;;;;-146.73;100.00;56421.06;6150205;23;20435;-93
2023/01/12 05:38:53;;;;;;;7.05;1.23;;;;;;;-146.73;100.00;56421.06;6151606;23;20009;-92
2023/01/12 05:41:20;;;;;;;7.68;1.10;;;;;;;-146.73;100.00;56421.06;6150087;23;20097;-92
2023/01/12 05:43:51;;;;;;;4.63;0.73;;;;;;;-146.73;100.00;56421.06;6176754;23;20005;-92
2023/01/12 05:46:24;;;;;;;7.53;0.98;;;;;;;-146.73;100.00;56421.06;6150517;23;20013;-93
2023/01/12 05:48:50;;;;;;;5.72;0.93;;;;;;;-146.73;100.00;56421.06;6177171;23;20013;-93
2023/01/12 05:51:18;;;;;;;5.15;1.00;;;;;;;-146.73;100.00;56421.06;6149352;23;20048;-92
2023/01/12 05:53:43;;;;;;;6.35;0.85;;;;;;;-146.73;100.00;56421.06;6175403;23;20008;-92
2023/01/12 05:56:24;;;;;;;6.05;0.85;;;;;;;-146.73;100.00;56421.06;6175024;23;20364;-93
2023/01/12 05:58:55;;;;;;;2.35;0.40;;;;;;;-146.73;100.00;56421.06;6176191;23;19997;-93
2023/01/12 06:01:21;;;;;;;2.08;0.32;;;;;;;-146.73;100.00;56421.06;6148815;23;20013;-94
2023/01/12 06:03:50;;;;;;;1.90;0.30;;;;;;;-146.73;100.00;56421.06;6151253;23;20067;-93
2023/01/12 06:06:16;;;;;;;0.98;0.20;;;;;;;-146.73;100.00;56421.06;6150923;23;20004;-93
2023/01/12 06:08:42;;;;;;;0.75;0.20;;;;;;;-146.73;100.00;56421.06;6151041;23;20009;-93
2023/01/12 06:13:55;;;;;;;3.35;0.40;;;;;;;-146.73;100.00;56421.06;6154522;23;20073;-93
2023/01/12 06:13:55;;;;;;;1.73;0.30;;;;;;;-146.73;100.00;56421.06;6184323;23;20028;-93
2023/01/12 06:16:21;;;;;;;5.20;0.50;;;;;;;-146.73;100.00;56421.06;6157211;23;20340;-94
2023/01/12 06:18:46;;;;;;;2.10;0.52;;;;;;;-146.73;100.00;56421.06;6157707;23;20435;-93
2023/01/12 06:21:12;;;;;;;3.05;0.55;;;;;;;-146.73;100.00;56421.06;6160475;23;20009;-92
2023/01/12 06:23:37;;;;;;;7.15;1.50;;;;;;;-146.73;100.00;56421.06;6159976;23;20383;-93
2023/01/12 06:26:04;;;;;;;36.88;6.18;;;;;;;-146.73;100.00;56421.06;6164173;23;20021;-93
2023/01/12 06:28:30;;;;;;;12.32;4.45;;;;;;;-146.73;100.00;56421.06;6164826;23;20013;-94
2023/01/12 06:31:01;;;;;;;10.77;4.50;;;;;;;-146.73;100.00;56421.06;6156095;23;20745;-95
2023/01/12 06:33:28;;;;;;;14.93;5.60;;;;;;;-146.73;100.00;56421.06;6179835;23;20009;-93
2023/01/12 06:35:54;;;;;;;41.78;7.07;;;;;;;-146.73;100.00;56421.06;6180260;23;20053;-94
2023/01/12 06:38:22;;;;;;;15.00;3.80;;;;;;;-146.73;100.00;56421.06;6153724;23;20005;-92
2023/01/12 06:40:48;;;;;;;15.57;3.35;;;;;;;-146.73;100.00;56421.06;6177364;23;20021;-94
2023/01/12 06:43:14;;;;;;;12.02;2.40;;;;;;;-146.73;100.00;56421.06;6178793;23;20009;-92
2023/01/12 06:45:39;;;;;;;15.88;2.22;;;;;;;-146.73;100.00;56421.06;6178927;23;20024;-93
2023/01/12 06:48:05;;;;;;;14.90;2.45;;;;;;;-146.73;100.00;56421.06;6152926;23;20009;-92
2023/01/12 06:50:32;;;;;;;15.10;2.60;;;;;;;-146.73;100.00;56421.06;6151110;23;20020;-94
2023/01/12 06:53:02;;;;;;;14.75;2.45;;;;;;;-146.73;100.00;56421.06;6176955;23;20009;-92
2023/01/12 06:55:28;;;;;;;14.52;2.78;;;;;;;-146.73;100.00;56421.06;6153519;23;20048;-93
2023/01/12 06:57:53;;;;;;;13.93;2.35;;;;;;;-146.73;100.00;56421.06;6154074;23;20387;-93
2023/01/12 07:00:19;;;;;;;12.70;2.20;;;;;;;-146.73;100.00;56421.06;6152914;23;20382;-93
2023/01/12 07:02:49;;;;;;;14.85;1.95;;;;;;;-146.73;100.00;56421.06;6153449;23;20017;-94
2023/01/12 07:05:14;;;;;;;13.93;2.33;;;;;;;-146.73;100.00;56421.06;6179627;23;20088;-94
2023/01/12 07:07:40;;;;;;;17.83;2.28;;;;;;;-146.73;100.00;56421.06;6180560;23;20371;-94
2023/01/12 07:10:05;;;;;;;10.80;1.70;;;;;;;-146.73;100.00;56421.06;6153741;23;20498;-94
2023/01/12 07:12:31;;;;;;;15.50;2.15;;;;;;;-146.73;100.00;56421.06;6179883;23;20017;-92
2023/01/12 07:14:58;;;;;;;11.95;1.98;;;;;;;-146.73;100.00;56421.06;6154284;23;20005;-94
2023/01/12 07:17:24;;;;;;;14.45;2.20;;;;;;;-146.73;100.00;56421.06;6153392;23;20013;-93
2023/01/12 07:19:49;;;;;;;14.73;2.20;;;;;;;-146.73;100.00;56421.06;6153066;23;20075;-93
2023/01/12 07:22:15;;;;;;;11.60;2.08;;;;;;;-146.73;100.00;56421.06;6153736;23;20032;-93
2023/01/12 07:24:40;;;;;;;14.65;1.83;;;;;;;-146.73;100.00;56421.06;6179398;23;20470;-94
2023/01/12 07:27:06;;;;;;;12.75;2.10;;;;;;;-146.73;100.00;56421.06;6178726;23;20005;-93
2023/01/12 07:29:31;;;;;;;11.23;1.88;;;;;;;-146.73;100.00;56421.06;6178959;23;20431;-93
2023/01/12 07:31:57;;;;;;;12.15;2.30;;;;;;;-146.73;100.00;56421.06;6153154;23;20036;-93
2023/01/12 07:34:23;;;;;;;18.05;2.13;;;;;;;-146.73;100.00;56421.06;6153363;23;20004;-93
2023/01/12 07:36:50;;;;;;;10.70;1.80;;;;;;;-146.73;100.00;56421.06;6153892;23;20426;-93
2023/01/12 07:39:16;;;;;;;9.35;1.70;;;;;;;-146.73;100.00;56421.06;6153269;23;20037;-93
2023/01/12 07:44:25;;;;;;;11.95;1.73;;;;;;;-146.73;100.00;56421.06;6179988;23;20120;-94
2023/01/12 07:46:51;;;;;;;9.73;1.38;;;;;;;-146.73;100.00;56421.06;6153340;23;20025;-94
2023/01/12 07:49:16;;;;;;;10.90;2.00;;;;;;;-146.73;100.00;56421.06;6153622;23;20199;-93
2023/01/12 07:51:42;;;;;;;13.57;1.88;;;;;;;-146.73;100.00;56421.06;6180624;23;20020;-94
2023/01/12 07:54:10;;;;;;;9.90;1.40;;;;;;;-146.73;100.00;56421.06;6153291;23;20024;-93
2023/01/12 07:56:35;;;;;;;11.68;1.67;;;;;;;-146.73;100.00;56421.06;6153766;23;20012;-93
2023/01/12 07:59:01;;;;;;;10.30;2.22;;;;;;;-146.73;100.00;56421.06;6180205;23;20470;-94
2023/01/12 08:01:27;;;;;;;11.93;1.67;;;;;;;-146.73;100.00;56421.06;6179338;23;20424;-94
2023/01/12 08:03:53;;;;;;;11.48;1.65;;;;;;;-146.73;100.00;56421.06;6147702;23;20430;-93
2023/01/12 08:06:19;;;;;;;9.98;1.60;;;;;;;-146.73;100.00;56421.06;6149023;23;20009;-93
2023/01/12 08:08:44;;;;;;;9.95;1.65;;;;;;;-146.73;100.00;56421.06;6149595;23;20033;-92
2023/01/12 08:11:10;;;;;;;9.20;1.60;;;;;;;-146.73;100.00;56421.06;6149974;23;20005;-93
2023/01/12 08:13:37;;;;;;;12.15;1.45;;;;;;;-146.73;100.00;56421.06;6149413;23;20474;-94
2023/01/12 08:16:19;;;;;;;10.43;1.52;;;;;;;-146.73;100.00;56421.06;6149330;23;20017;-93
2023/01/12 08:18:55;;;;;;;10.02;1.58;;;;;;;-146.73;100.00;56421.06;6148717;23;20061;-94
2023/01/12 08:21:25;;;;;;;10.00;1.58;;;;;;;-146.73;100.00;56421.06;6146999;23;20006;-93
2023/01/12 08:23:56;;;;;;;11.80;2.00;;;;;;;-146.73;100.00;56421.06;6145963;23;20076;-94
2023/01/12 08:26:42;;;;;;;9.48;1.40;;;;;;;-146.73;100.00;56421.06;6145279;23;20025;-93
2023/01/12 08:29:18;;;;;;;13.93;2.05;;;;;;;-146.73;100.00;56421.06;6143951;23;20009;-94
2023/01/12 08:31:43;;;;;;;10.48;1.90;;;;;;;-146.73;100.00;56421.06;6142589;23;20006;-94
2023/01/12 08:34:09;;;;;;;10.85;2.08;;;;;;;-146.73;100.00;56421.06;6142795;23;20020;-94
2023/01/12 08:36:37;;;;;;;10.52;1.60;;;;;;;-146.73;100.00;56421.06;6142886;23;20351;-94
2023/01/12 08:39:03;;;;;;;11.52;1.58;;;;;;;-146.73;100.00;56421.06;6148382;23;20002;-93
2023/01/12 08:41:32;;;;;;;10.27;1.95;;;;;;;-146.73;100.00;56421.06;6148950;23;20021;-93
2023/01/12 08:44:06;;;;;;;12.35;1.90;;;;;;;-146.73;100.00;56421.06;6148605;23;20135;-93
2023/01/12 08:46:37;;;;;;;11.57;1.70;;;;;;;-146.73;100.00;56421.06;6145857;23;20067;-93
2023/01/12 08:49:12;;;;;;;13.40;2.08;;;;;;;-146.73;100.00;56421.06;6146076;23;20006;-93
2023/01/12 08:51:39;;;;;;;9.25;1.70;;;;;;;-146.73;100.00;56421.06;6145351;23;20005;-93
2023/01/12 08:54:06;;;;;;;13.32;1.67;;;;;;;-146.73;100.00;56421.06;6145957;23;20002;-93
2023/01/12 08:56:32;;;;;;;12.13;1.48;;;;;;;-146.73;100.00;56421.06;6143766;23;20549;-93
2023/01/12 08:58:57;;;;;;;11.27;1.50;;;;;;;-146.73;100.00;56421.06;6144662;23;20013;-93
2023/01/12 09:01:23;;;;;;;12.35;1.70;;;;;;;-146.73;100.00;56421.06;6143771;23;20319;-92
2023/01/12 09:03:48;;;;;;;9.40;1.92;;;;;;;-146.73;100.00;56421.06;6155732;23;20099;-92
2023/01/12 09:06:26;;;;;;;10.02;1.40;;;;;;;-146.73;100.00;56421.06;6148837;23;20039;-93
2023/01/12 09:08:54;;;;;;;10.57;1.42;;;;;;;-146.73;100.00;56421.06;6147311;23;20013;-93
2023/01/12 09:11:20;;;;;;;13.20;2.13;;;;;;;-146.73;100.00;56421.06;6148371;23;20427;-93
2023/01/12 09:13:46;;;;;;;11.65;1.70;;;;;;;-146.73;100.00;56421.06;6147513;23;20004;-93
2023/01/12 09:16:14;;;;;;;8.63;1.52;;;;;;;-146.73;100.00;56421.06;6147360;23;20024;-92
2023/01/12 09:18:41;;;;;;;14.60;2.20;;;;;;;-146.73;100.00;56421.06;6173575;23;20000;-92
2023/01/12 09:21:10;;;;;;;11.25;1.50;;;;;;;-146.73;100.00;56421.06;6174566;23;20051;-93
2023/01/12 09:23:36;;;;;;;8.50;1.45;;;;;;;-146.73;100.00;56421.06;6173168;23;20036;-92
2023/01/12 09:26:06;;;;;;;10.18;1.83;;;;;;;-146.73;100.00;56421.06;6173961;23;20347;-93
2023/01/12 09:28:33;;;;;;;19.05;1.92;;;;;;;-146.73;100.00;56421.06;6174445;23;20009;-93
2023/01/12 09:31:21;;;;;;;8.85;1.77;;;;;;;-146.73;100.00;56421.06;6147695;23;20446;-92
2023/01/12 09:33:47;;;;;;;11.90;2.47;;;;;;;-146.73;100.00;56421.06;6132261;23;20013;-91
2023/01/12 09:36:21;;;;;;;8.73;1.55;;;;;;;-146.73;100.00;56421.06;6147339;23;20009;-92
2023/01/12 09:38:48;;;;;;;10.88;1.88;;;;;;;-146.73;100.00;56421.06;6174414;23;20001;-94
2023/01/12 09:47:26;;;;;;;10.50;1.40;;;;;;;-146.73;100.00;56421.06;6174452;23;20777;-93
2023/01/12 09:50:00;;;;;;;7.97;1.63;;;;;;;-146.73;100.00;56421.06;6174057;23;20063;-92
2023/01/12 09:52:32;;;;;;;11.52;1.40;;;;;;;-146.73;100.00;56421.06;6173529;23;20489;-93
2023/01/12 09:54:57;;;;;;;8.60;1.42;;;;;;;-146.73;100.00;56421.06;6147171;23;20005;-95
2023/01/12 09:57:53;;;;;;;7.72;1.45;;;;;;;-146.73;100.00;56421.06;6150012;23;20016;-93
2023/01/12 10:00:20;;;;;;;7.90;1.30;;;;;;;-146.73;100.00;56421.06;6174429;23;20012;-92
2023/01/12 10:02:53;;;;;;;8.27;1.30;;;;;;;-146.73;100.00;56421.06;6177362;23;20027;-92
2023/01/12 10:05:33;;;;;;;;;;;;;;;-146.73;100.00;56421.06;6151563;23;20878;-92
2023/01/12 10:07:59;;;;;;;7.60;1.27;;;;;;;-146.73;100.00;56421.06;6149958;23;19904;-92
2023/01/12 10:10:26;;;;;;;8.15;1.17;;;;;;;-146.73;100.00;56421.06;6178716;23;20064;-91
2023/01/12 10:12:57;;;;;;;6.80;0.95;;;;;;;-146.73;100.00;56421.06;6177756;23;20032;-92
2023/01/12 10:15:47;;;;;;;8.15;1.17;;;;;;;-146.73;100.00;56421.06;6178123;23;20005;-92
2023/01/12 10:18:22;;;;;;;6.35;0.90;;;;;;;-146.73;100.00;56421.06;6175780;23;20060;-92
2023/01/12 10:20:48;;;;;;;6.03;0.70;;;;;;;-146.73;100.00;56421.06;6178866;23;20009;-93
2023/01/12 10:23:18;;;;;;;5.15;0.90;;;;;;;-146.73;100.00;56421.06;6176203;23;20067;-93
2023/01/12 10:25:48;;;;;;;7.53;1.02;;;;;;;-146.73;100.00;56421.06;6153352;23;20506;-92
2023/01/12 10:28:16;;;;;;;7.70;1.13;;;;;;;-146.73;100.00;56421.06;6152084;23;20009;-92
2023/01/12 10:30:42;;;;;;;7.05;1.45;;;;;;;-146.73;100.00;56421.06;6179241;23;20020;-93
2023/01/12 10:33:16;;;;;;;7.22;1.25;;;;;;;-146.73;100.00;56421.06;6153318;23;20075;-92
2023/01/12 10:36:07;;;;;;;9.77;1.45;;;;;;;-146.73;100.00;56421.06;6153841;23;20021;-92
2023/01/12 10:38:58;;;;;;;6.20;1.20;;;;;;;-146.73;100.00;56421.06;6181576;23;20032;-93
2023/01/12 10:41:26;;;;;;;5.03;1.02;;;;;;;-146.73;100.00;56421.06;6180647;23;20008;-92
2023/01/12 10:43:54;;;;;;;4.53;0.98;;;;;;;-146.73;100.00;56421.06;6154981;23;20021;-91
2023/01/12 10:46:23;;;;;;;9.18;1.30;;;;;;;-146.73;100.00;56421.06;6176925;23;20129;-93
2023/01/12 10:48:53;;;;;;;7.20;1.40;;;;;;;-146.73;100.00;56421.06;6179318;23;20005;-94
2023/01/12 10:51:23;;;;;;;7.35;1.23;;;;;;;-146.73;100.00;56421.06;6157128;23;20013;-93
2023/01/12 10:53:57;;;;;;;4.13;0.95;;;;;;;-146.73;100.00;56421.06;6167937;23;20013;-93
2023/01/12 10:56:37;;;;;;;4.30;0.88;;;;;;;-146.73;100.00;56421.06;6166934;23;20263;-92
2023/01/12 10:59:12;;;;;;;5.57;1.15;;;;;;;-146.73;100.00;56421.06;6165404;23;20025;-93
2023/01/12 11:02:04;;;;;;;5.65;1.05;;;;;;;-146.73;100.00;56421.06;6194291;23;20506;-94
2023/01/12 11:04:35;;;;;;;6.15;1.38;;;;;;;-146.73;100.00;56421.06;6158149;23;20134;-92
2023/01/12 11:07:20;;;;;;;5.28;1.13;;;;;;;-146.73;100.00;56421.06;6170327;23;20001;-94
2023/01/12 11:09:46;;;;;;;6.28;1.00;;;;;;;-146.73;100.00;56421.06;6171369;23;20017;-93
2023/01/12 11:12:33;;;;;;;7.45;1.23;;;;;;;-146.73;100.00;56421.06;6189934;23;20286;-93
2023/01/12 11:15:08;;;;;;;5.65;1.20;;;;;;;-146.73;100.00;56421.06;6155140;23;20039;-95
2023/01/12 11:17:58;;;;;;;4.68;0.95;;;;;;;-146.73;100.00;56421.06;6180364;23;20001;-93
2023/01/12 11:20:38;;;;;;;5.80;1.15;;;;;;;-146.73;100.00;56421.06;6154460;23;20008;-93
2023/01/12 11:23:35;;;;;;;6.85;1.30;;;;;;;-146.73;100.00;56421.06;6154591;23;20001;-93
2023/01/12 11:26:08;;;;;;;7.13;1.10;;;;;;;-146.73;100.00;56421.06;6152968;23;20726;-94
2023/01/12 11:28:44;;;;;;;5.70;1.30;;;;;;;-146.73;100.00;56421.06;6154063;23;20092;-94
2023/01/12 11:31:21;;;;;;;9.05;1.33;;;;;;;-146.73;100.00;56421.06;6151567;23;20009;-93
2023/01/12 11:34:09;;;;;;;5.63;1.13;;;;;;;-146.73;100.00;56421.06;6152846;23;20063;-93
2023/01/12 11:37:11;;;;;;;5.70;1.00;;;;;;;-146.73;100.00;56421.06;6153512;23;20446;-93
2023/01/12 11:39:40;;;;;;;6.05;1.00;;;;;;;-146.73;100.00;56421.06;6096168;23;20009;-93
2023/01/12 11:45:12;;;;;;;6.70;1.33;;;;;;;-146.73;100.00;56421.06;6178305;23;20104;-95
2023/01/12 11:47:51;;;;;;;7.20;1.15;;;;;;;-146.73;100.00;56421.06;6152594;23;20492;-95
2023/01/12 11:50:32;;;;;;;5.75;1.02;;;;;;;-146.73;100.00;56421.06;6183113;23;20068;-95
2023/01/12 11:54:20;;;;;;;7.85;1.20;;;;;;;-146.73;100.00;56421.06;6153718;23;20005;-93
2023/01/12 11:56:40;;;;;;;7.20;1.00;;;;;;;-146.73;100.00;56421.06;6165726;23;20494;-93